createdAt,value
2023-06-30T00:01:39.114Z,77075.09
2023-06-30T00:04:09.708Z,72388.44
2023-06-30T00:06:43.197Z,74290.13
2023-06-30T00:09:11.662Z,74495.72
2023-06-30T00:11:40.957Z,89410.22
2023-06-30T00:14:09.290Z,93029.59
2023-06-30T00:16:39.562Z,85415.53
2023-06-30T00:19:09.267Z,87988.44
2023-06-30T00:21:43.258Z,81254.75
2023-06-30T00:24:11.866Z,95102.69
2023-06-30T00:26:42.335Z,87754.38
2023-06-30T00:29:10.403Z,86196.63
2023-06-30T00:31:38.774Z,84426.88
2023-06-30T00:34:07.132Z,87763.16
2023-06-30T00:36:35.269Z,103539.91
2023-06-30T00:39:05.705Z,104889.81
2023-06-30T00:41:33.958Z,94870.19
2023-06-30T00:44:02.934Z,99592.63
2023-06-30T00:46:31.400Z,13144.88
2023-06-30T00:49:00.407Z,16793.94
2023-06-30T00:51:28.697Z,17453.34
2023-06-30T00:53:57.037Z,7846.13
2023-06-30T00:56:26.953Z,1236.72
2023-06-30T00:58:55.280Z,-2062.56
2023-06-30T01:01:32.919Z,-4699.56
2023-06-30T01:04:08.575Z,-5029.19
2023-06-30T01:06:48.555Z,-5358.16
2023-06-30T01:09:22.167Z,-7334.03
2023-06-30T01:11:53.166Z,-8650.31
2023-06-30T01:14:23.820Z,-9966.31
2023-06-30T01:16:52.930Z,-9965.19
2023-06-30T01:19:29.415Z,-10951.09
2023-06-30T01:22:04.942Z,-9964.03
2023-06-30T01:24:36.835Z,-11279.25
2023-06-30T01:27:07.139Z,-10948.28
2023-06-30T01:29:36.403Z,-10291.69
2023-06-30T01:32:04.557Z,-10947.13
2023-06-30T01:34:32.677Z,-7330.94
2023-06-30T01:37:00.642Z,-8975.38
2023-06-30T01:39:28.603Z,66279.94
2023-06-30T01:41:57.361Z,151967.75
2023-06-30T01:44:28.092Z,151918.47
2023-06-30T01:46:56.162Z,74760.22
2023-06-30T01:49:26.541Z,28374.25
2023-06-30T01:51:54.545Z,13454.09
2023-06-30T01:54:24.048Z,-416.44
2023-06-30T01:57:08.236Z,-2722.50
2023-06-30T01:59:37.491Z,-1405.28
2023-06-30T02:02:06.115Z,-5355.19
2023-06-30T02:04:34.118Z,-6012.88
2023-06-30T02:07:03.122Z,-6999.00
2023-06-30T02:09:43.273Z,-7328.22
2023-06-30T02:13:03.831Z,-7985.09
2023-06-30T02:15:34.261Z,-7327.25
2023-06-30T02:18:09.211Z,-7983.25
2023-06-30T02:20:37.083Z,-8312.03
2023-06-30T02:23:05.036Z,-8312.25
2023-06-30T02:25:33.014Z,-8969.69
2023-06-30T02:28:01.914Z,-8640.44
2023-06-30T02:30:35.319Z,-8641.09
2023-06-30T02:33:03.167Z,-8640.06
2023-06-30T02:35:31.101Z,-7654.06
2023-06-30T02:38:00.508Z,-7325.53
2023-06-30T02:40:28.421Z,-7654.06
2023-06-30T02:42:57.410Z,-3709.34
2023-06-30T02:45:25.969Z,-7653.44
2023-06-30T02:47:57.904Z,-7982.09
2023-06-30T02:50:31.903Z,-7652.81
2023-06-30T02:53:00.718Z,-7981.41
2023-06-30T02:55:29.012Z,145425.03
2023-06-30T02:57:58.789Z,21376.28
2023-06-30T03:00:27.409Z,25679.31
2023-06-30T03:02:57.267Z,2542.97
2023-06-30T03:05:25.882Z,-419.97
2023-06-30T03:07:53.763Z,-2393.91
2023-06-30T03:10:21.680Z,-3380.44
2023-06-30T03:12:49.755Z,-5682.13
2023-06-30T03:15:18.074Z,-5681.31
2023-06-30T03:17:46.309Z,-7323.53
2023-06-30T03:20:17.037Z,-5680.66
2023-06-30T03:22:45.874Z,48308.94
2023-06-30T03:25:13.746Z,-7322.81
2023-06-30T03:27:41.922Z,-6666.63
2023-06-30T03:30:11.158Z,-7323.03
2023-06-30T03:32:39.454Z,-9292.34
2023-06-30T03:35:08.484Z,-9292.03
2023-06-30T03:37:37.738Z,-9950.28
2023-06-30T03:40:07.273Z,-10278.06
2023-06-30T03:42:37.211Z,-9948.34
2023-06-30T03:45:05.944Z,-9620.91
2023-06-30T03:47:33.956Z,-9292.59
2023-06-30T03:50:02.303Z,-9949.81
2023-06-30T03:52:30.361Z,-10279.44
2023-06-30T03:54:59.782Z,-11262.50
2023-06-30T03:57:27.943Z,-10935.84
2023-06-30T03:59:55.952Z,-10607.66
2023-06-30T04:02:24.029Z,-11262.78
2023-06-30T04:04:52.133Z,-9949.03
2023-06-30T04:07:20.808Z,-9949.09
2023-06-30T04:09:49.934Z,-10278.31
2023-06-30T04:12:21.599Z,-10935.59
2023-06-30T04:14:50.176Z,-11263.75
2023-06-30T04:17:19.726Z,-10935.38
2023-06-30T04:19:47.754Z,-11921.72
2023-06-30T04:22:15.808Z,-11592.44
2023-06-30T04:24:44.114Z,-11920.63
2023-06-30T04:27:12.317Z,-12249.91
2023-06-30T04:29:41.767Z,-13890.09
2023-06-30T04:32:10.001Z,-14877.31
2023-06-30T04:34:39.069Z,-14550.34
2023-06-30T04:37:07.229Z,-15862.75
2023-06-30T04:39:36.757Z,-16192.50
2023-06-30T04:42:06.376Z,-16193.91
2023-06-30T04:44:34.406Z,-16523.88
2023-06-30T04:47:03.835Z,-16526.44
2023-06-30T04:49:32.791Z,-17183.69
2023-06-30T04:52:01.885Z,-17841.81
2023-06-30T04:54:30.732Z,-18172.19
2023-06-30T04:56:59.076Z,-18173.66
2023-06-30T04:59:28.574Z,-18504.16
2023-06-30T05:01:57.110Z,-18505.81
2023-06-30T05:04:26.780Z,-18834.47
2023-06-30T05:06:56.082Z,-18507.44
2023-06-30T05:09:24.899Z,-18835.63
2023-06-30T05:11:54.446Z,-19166.81
2023-06-30T05:14:23.394Z,-19168.53
2023-06-30T05:16:51.549Z,-19170.91
2023-06-30T05:19:19.608Z,-19499.56
2023-06-30T05:21:48.947Z,-19172.75
2023-06-30T05:24:19.702Z,-19501.59
2023-06-30T05:26:48.003Z,-19829.03
2023-06-30T05:29:16.056Z,-19835.09
2023-06-30T05:31:46.546Z,-19835.34
2023-06-30T05:34:16.910Z,-19842.22
2023-06-30T05:36:46.158Z,-19845.50
2023-06-30T05:39:15.757Z,-20180.34
2023-06-30T05:41:43.894Z,-20184.13
2023-06-30T05:44:12.094Z,-20188.72
2023-06-30T05:46:40.232Z,-20195.28
2023-06-30T05:49:08.325Z,-20201.16
2023-06-30T05:51:37.374Z,-20201.84
2023-06-30T05:54:05.784Z,-20203.81
2023-06-30T05:56:35.151Z,-19875.50
2023-06-30T05:59:03.439Z,-19876.59
2023-06-30T06:01:31.588Z,-19550.75
2023-06-30T06:04:03.216Z,-19218.44
2023-06-30T06:06:31.436Z,-18894.34
2023-06-30T06:08:59.744Z,-18900.28
2023-06-30T06:11:28.418Z,-19235.00
2023-06-30T06:14:01.309Z,-19238.56
2023-06-30T06:16:30.404Z,-19572.63
2023-06-30T06:18:58.569Z,-20235.34
2023-06-30T06:21:28.700Z,-20237.97
2023-06-30T06:23:57.987Z,-20236.72
2023-06-30T06:26:27.073Z,-20233.78
2023-06-30T06:28:56.101Z,-20235.03
2023-06-30T06:31:28.414Z,-20237.28
2023-06-30T06:33:56.747Z,-20240.06
2023-06-30T06:36:24.641Z,-20260.41
2023-06-30T06:38:52.747Z,-20274.59
2023-06-30T06:41:20.816Z,-20286.84
2023-06-30T06:43:48.967Z,-20287.56
2023-06-30T06:46:17.078Z,-20294.38
2023-06-30T06:48:46.429Z,-20304.09
2023-06-30T06:51:14.585Z,-20329.97
2023-06-30T06:53:43.970Z,-20361.34
2023-06-30T06:56:11.876Z,-20339.13
2023-06-30T06:58:40.122Z,-20345.78
2023-06-30T07:01:08.716Z,-20343.00
2023-06-30T07:03:36.828Z,-20333.72
2023-06-30T07:06:07.447Z,-20015.56
2023-06-30T07:08:36.393Z,-8057.78
2023-06-30T07:11:05.093Z,154292.66
2023-06-30T07:13:33.205Z,154275.66
2023-06-30T07:16:01.163Z,154499.06
2023-06-30T07:18:30.932Z,154720.00
2023-06-30T07:20:59.185Z,154705.59
2023-06-30T07:23:28.629Z,154557.88
2023-06-30T07:25:56.727Z,154135.88
2023-06-30T07:28:27.913Z,8219.13
2023-06-30T07:30:56.128Z,-20331.06
2023-06-30T07:33:24.018Z,-20330.94
2023-06-30T07:35:52.339Z,-20331.34
2023-06-30T07:38:20.352Z,-20342.88
2023-06-30T07:40:56.531Z,-20368.41
2023-06-30T07:43:27.740Z,-20362.44
2023-06-30T07:45:57.781Z,-20370.34
2023-06-30T07:48:29.910Z,-20364.38
2023-06-30T07:51:09.743Z,-20345.78
2023-06-30T07:53:43.134Z,-20307.16
2023-06-30T07:56:22.854Z,59152.13
2023-06-30T07:58:52.961Z,153839.69
2023-06-30T08:01:28.705Z,97153.50
2023-06-30T08:04:04.570Z,-19720.97
2023-06-30T08:06:34.955Z,-20374.63
2023-06-30T08:09:04.137Z,-20397.50
2023-06-30T08:11:33.850Z,-20396.13
2023-06-30T08:14:03.305Z,-20414.69
2023-06-30T08:16:32.132Z,-18770.78
2023-06-30T08:19:00.388Z,-10751.69
2023-06-30T08:21:28.437Z,2652.91
2023-06-30T08:23:57.708Z,-20424.78
2023-06-30T08:26:25.813Z,-18450.53
2023-06-30T08:29:01.771Z,-5730.66
2023-06-30T08:31:32.034Z,5005.94
2023-06-30T08:34:06.713Z,13775.25
2023-06-30T08:36:36.189Z,25906.28
2023-06-30T08:39:04.206Z,76123.34
2023-06-30T08:41:32.922Z,47415.44
2023-06-30T08:44:03.395Z,19504.47
2023-06-30T08:46:31.659Z,-20374.09
2023-06-30T08:48:59.717Z,-20370.06
2023-06-30T08:51:28.944Z,-20424.22
2023-06-30T08:53:59.291Z,-20418.41
2023-06-30T08:56:29.750Z,-20395.44
2023-06-30T08:59:00.230Z,-20366.88
2023-06-30T09:01:29.886Z,-20388.50
2023-06-30T09:03:59.704Z,-20406.22
2023-06-30T09:06:28.676Z,-20416.19
2023-06-30T09:09:01.725Z,13430.44
2023-06-30T09:11:31.604Z,49809.88
2023-06-30T09:14:03.114Z,78296.88
2023-06-30T09:16:33.417Z,75653.53
2023-06-30T09:19:02.644Z,131140.56
2023-06-30T09:21:32.175Z,31028.00
2023-06-30T09:24:02.566Z,1647.69
2023-06-30T09:26:32.728Z,-20406.66
2023-06-30T09:29:01.076Z,-20399.31
2023-06-30T09:31:35.312Z,15105.25
2023-06-30T09:34:11.693Z,25935.72
2023-06-30T09:36:48.125Z,117558.69
2023-06-30T09:39:16.133Z,138868.13
2023-06-30T09:41:45.432Z,114678.94
2023-06-30T09:44:14.385Z,43559.38
2023-06-30T09:46:50.768Z,-7056.91
2023-06-30T09:49:30.090Z,14407.06
2023-06-30T09:51:59.784Z,45967.97
2023-06-30T09:54:43.891Z,153245.25
2023-06-30T09:57:13.616Z,155305.00
2023-06-30T09:59:42.842Z,155090.25
2023-06-30T10:02:12.634Z,155013.03
2023-06-30T10:04:44.496Z,155246.13
2023-06-30T10:07:16.306Z,154962.00
2023-06-30T10:09:47.273Z,143737.69
2023-06-30T10:12:20.651Z,142786.44
2023-06-30T10:14:52.482Z,149494.66
2023-06-30T10:17:22.352Z,154876.97
2023-06-30T10:19:50.675Z,154886.13
2023-06-30T10:22:18.821Z,155531.66
2023-06-30T10:24:51.025Z,155208.06
2023-06-30T10:27:21.010Z,154674.25
2023-06-30T10:29:49.354Z,140192.81
2023-06-30T10:32:21.469Z,146473.06
2023-06-30T10:34:53.329Z,155095.50
2023-06-30T10:37:22.433Z,155574.91
2023-06-30T10:39:51.027Z,155430.78
2023-06-30T10:42:23.933Z,155491.03
2023-06-30T10:44:53.666Z,155514.66
2023-06-30T10:47:24.595Z,155586.66
2023-06-30T10:49:57.871Z,155267.03
2023-06-30T10:52:29.076Z,154721.31
2023-06-30T10:55:00.009Z,154713.47
2023-06-30T10:57:29.624Z,155032.63
2023-06-30T11:00:09.426Z,155179.28
2023-06-30T11:02:39.945Z,155200.19
2023-06-30T11:05:26.771Z,155302.41
2023-06-30T11:08:05.885Z,155247.38
2023-06-30T11:10:38.303Z,155143.91
2023-06-30T11:13:10.719Z,155193.66
2023-06-30T11:15:41.852Z,155243.44
2023-06-30T11:18:17.221Z,155487.09
2023-06-30T11:21:03.877Z,155377.03
2023-06-30T11:23:39.140Z,155649.63
2023-06-30T11:26:15.210Z,155594.53
2023-06-30T11:28:44.477Z,155408.50
2023-06-30T11:31:16.883Z,155036.56
2023-06-30T11:33:49.214Z,154765.75
2023-06-30T11:36:20.553Z,155349.56
2023-06-30T11:38:59.184Z,155357.41
2023-06-30T11:41:34.865Z,155401.94
2023-06-30T11:44:03.018Z,155669.31
2023-06-30T11:46:37.625Z,155800.47
2023-06-30T11:49:09.607Z,155925.00
2023-06-30T11:51:39.196Z,156091.66
2023-06-30T11:54:09.135Z,155466.19
2023-06-30T11:56:41.502Z,155599.78
2023-06-30T11:59:09.577Z,155839.78
2023-06-30T12:01:37.802Z,155884.34
2023-06-30T12:04:35.199Z,155686.34
2023-06-30T12:07:17.338Z,155892.25
2023-06-30T12:10:01.668Z,155797.84
2023-06-30T12:12:33.389Z,155441.25
2023-06-30T12:15:05.263Z,155399.31
2023-06-30T12:17:37.859Z,155647.00
2023-06-30T12:20:08.460Z,155506.78
2023-06-30T12:22:43.516Z,155843.72
2023-06-30T12:25:12.698Z,155673.25
2023-06-30T12:27:46.399Z,155475.31
2023-06-30T12:30:18.126Z,155709.94
2023-06-30T12:32:47.412Z,155377.03
2023-06-30T12:35:15.480Z,155274.91
2023-06-30T12:37:46.114Z,155221.16
2023-06-30T12:40:15.050Z,154852.09
2023-06-30T12:42:49.409Z,154899.22
2023-06-30T12:45:17.666Z,155041.81
2023-06-30T12:47:45.641Z,154930.59
2023-06-30T12:50:13.713Z,155609.03
2023-06-30T12:52:41.737Z,155900.09
2023-06-30T12:55:11.793Z,155542.13
2023-06-30T12:57:41.523Z,155383.59
2023-06-30T13:00:13.341Z,155416.31
2023-06-30T13:02:43.110Z,155386.19
2023-06-30T13:05:11.290Z,155454.38
2023-06-30T13:07:40.517Z,155805.72
2023-06-30T13:10:11.127Z,155904.03
2023-06-30T13:12:41.662Z,155488.41
2023-06-30T13:15:11.202Z,155141.28
2023-06-30T13:17:39.464Z,155036.56
2023-06-30T13:20:09.163Z,155298.50
2023-06-30T13:22:42.770Z,155598.47
2023-06-30T13:25:18.107Z,155429.47
2023-06-30T13:27:46.589Z,155272.28
2023-06-30T13:30:14.732Z,155040.50
2023-06-30T13:32:43.018Z,155094.19
2023-06-30T13:35:11.084Z,154959.41
2023-06-30T13:37:39.121Z,154968.50
2023-06-30T13:40:09.545Z,154980.28
2023-06-30T13:42:39.946Z,155060.19
2023-06-30T13:45:10.989Z,154931.91
2023-06-30T13:47:48.558Z,155405.88
2023-06-30T13:50:17.554Z,155582.72
2023-06-30T13:52:45.831Z,155239.50
2023-06-30T13:55:17.544Z,155282.75
2023-06-30T13:58:04.296Z,155593.22
2023-06-30T14:01:12.996Z,155692.94
2023-06-30T14:03:43.694Z,155736.16
2023-06-30T14:06:23.785Z,155826.66
2023-06-30T14:08:55.463Z,155607.72
2023-06-30T14:11:23.564Z,155603.78
2023-06-30T14:13:52.985Z,155468.81
2023-06-30T14:16:21.187Z,155188.47
2023-06-30T14:18:49.218Z,154925.34
2023-06-30T14:21:19.485Z,154774.91
2023-06-30T14:23:48.954Z,154895.28
2023-06-30T14:26:17.755Z,154927.97
2023-06-30T14:28:47.149Z,154912.25
2023-06-30T14:31:24.288Z,155014.34
2023-06-30T14:33:56.012Z,155147.84
2023-06-30T14:36:24.989Z,155229.03
2023-06-30T14:38:53.043Z,155001.25
2023-06-30T14:41:21.449Z,155043.09
2023-06-30T14:43:49.575Z,154996.00
2023-06-30T14:46:18.875Z,155124.31
2023-06-30T14:48:46.767Z,155307.59
2023-06-30T14:51:14.872Z,155192.34
2023-06-30T14:53:45.135Z,155318.09
2023-06-30T14:56:13.007Z,155284.06
2023-06-30T14:58:41.564Z,155263.09
2023-06-30T15:01:09.664Z,155315.47
2023-06-30T15:03:39.553Z,155314.16
2023-06-30T15:06:07.536Z,155307.59
2023-06-30T15:08:35.956Z,155242.13
2023-06-30T15:11:03.783Z,155137.38
2023-06-30T15:13:33.411Z,155092.88
2023-06-30T15:16:04.034Z,154942.38
2023-06-30T15:18:32.052Z,154948.91
2023-06-30T15:21:02.594Z,155007.78
2023-06-30T15:23:30.686Z,154844.22
2023-06-30T15:26:06.997Z,154810.19
2023-06-30T15:28:35.926Z,154852.09
2023-06-30T15:31:04.117Z,154871.72
2023-06-30T15:33:35.254Z,154853.41
2023-06-30T15:36:10.625Z,154785.38
2023-06-30T15:38:38.819Z,154934.53
2023-06-30T15:41:21.820Z,155035.25
2023-06-30T15:43:50.412Z,155022.19
2023-06-30T15:46:18.886Z,155218.53
2023-06-30T15:48:49.866Z,155463.56
2023-06-30T15:51:21.211Z,155438.66
2023-06-30T15:53:49.327Z,155518.56
2023-06-30T15:56:17.620Z,155715.19
2023-06-30T15:58:45.588Z,155639.13
2023-06-30T16:01:13.549Z,155603.78
2023-06-30T16:03:42.737Z,155426.84
2023-06-30T16:06:11.701Z,155504.16
2023-06-30T16:08:41.153Z,155247.38
2023-06-30T16:11:09.037Z,155096.81
2023-06-30T16:13:37.664Z,155075.91
2023-06-30T16:16:07.038Z,155082.41
2023-06-30T16:18:37.584Z,155016.97
2023-06-30T16:21:05.612Z,154927.97
2023-06-30T16:23:33.702Z,154907.06
2023-06-30T16:26:03.341Z,154814.13
2023-06-30T16:28:31.262Z,154818.06
2023-06-30T16:30:59.120Z,154879.59
2023-06-30T16:33:27.804Z,154803.66
2023-06-30T16:35:55.929Z,154869.09
2023-06-30T16:38:23.902Z,154916.19
2023-06-30T16:40:52.846Z,154956.78
2023-06-30T16:43:22.281Z,154852.09
2023-06-30T16:45:50.412Z,154835.06
2023-06-30T16:48:18.506Z,154828.53
2023-06-30T16:50:46.668Z,154747.44
2023-06-30T16:53:14.756Z,154726.53
2023-06-30T16:55:45.284Z,154684.72
2023-06-30T16:58:16.156Z,154625.84
2023-06-30T17:00:45.792Z,154561.78
2023-06-30T17:03:13.994Z,154489.91
2023-06-30T17:05:51.528Z,154472.91
2023-06-30T17:08:20.352Z,154425.84
2023-06-30T17:10:48.240Z,154390.59
2023-06-30T17:13:25.458Z,154361.81
2023-06-30T17:15:55.036Z,154367.06
2023-06-30T17:18:22.994Z,154343.56
2023-06-30T17:20:51.016Z,154326.59
2023-06-30T17:23:19.139Z,153531.97
2023-06-30T17:25:48.466Z,154302.31
2023-06-30T17:28:18.593Z,154424.53
2023-06-30T17:30:47.784Z,154644.09
2023-06-30T17:33:18.813Z,154703.00
2023-06-30T17:35:47.071Z,154747.44
2023-06-30T17:38:16.658Z,154687.34
2023-06-30T17:40:45.802Z,154729.16
2023-06-30T17:43:13.856Z,154853.41
2023-06-30T17:45:43.032Z,154607.53
2023-06-30T17:48:11.567Z,154559.19
2023-06-30T17:50:40.976Z,154421.91
2023-06-30T17:53:13.772Z,154404.97
2023-06-30T17:55:44.820Z,154321.34
2023-06-30T17:58:13.006Z,154318.75
2023-06-30T18:00:41.093Z,154335.72
2023-06-30T18:03:09.054Z,154355.28
2023-06-30T18:05:37.242Z,154326.59
2023-06-30T18:08:06.878Z,154343.56
2023-06-30T18:10:34.972Z,154297.88
2023-06-30T18:13:03.294Z,154337.03
2023-06-30T18:15:32.011Z,154340.97
2023-06-30T18:18:00.314Z,154329.19
2023-06-30T18:20:28.403Z,154240.38
2023-06-30T18:22:57.396Z,154246.91
2023-06-30T18:25:27.699Z,154244.25
2023-06-30T18:27:55.635Z,154203.78
2023-06-30T18:30:25.225Z,154173.78
2023-06-30T18:32:55.095Z,154158.09
2023-06-30T18:35:23.061Z,154138.50
2023-06-30T18:37:50.977Z,154150.25
2023-06-30T18:40:28.157Z,154111.13
2023-06-30T18:42:56.104Z,154071.97
2023-06-30T18:45:24.017Z,154060.22
2023-06-30T18:47:52.098Z,154048.47
2023-06-30T18:50:20.102Z,154009.28
2023-06-30T18:52:48.002Z,153997.53
2023-06-30T18:55:16.063Z,154002.75
2023-06-30T18:57:45.529Z,153985.78
2023-06-30T19:00:15.566Z,153976.63
2023-06-30T19:02:43.804Z,153954.47
2023-06-30T19:05:12.645Z,153940.13
2023-06-30T19:07:40.734Z,153933.59
2023-06-30T19:10:10.483Z,153916.63
2023-06-30T19:12:38.828Z,153906.22
2023-06-30T19:15:09.607Z,153903.63
2023-06-30T19:17:37.517Z,153893.16
2023-06-30T19:20:06.288Z,153868.38
2023-06-30T19:22:43.244Z,153843.59
2023-06-30T19:25:11.144Z,153848.84
2023-06-30T19:27:39.205Z,153839.69
2023-06-30T19:30:10.019Z,153820.13
2023-06-30T19:32:38.026Z,153827.94
2023-06-30T19:35:06.707Z,153817.50
2023-06-30T19:37:34.729Z,153809.66
2023-06-30T19:40:02.580Z,153807.06
2023-06-30T19:42:30.601Z,153801.84
2023-06-30T19:44:59.629Z,153767.91
2023-06-30T19:47:29.047Z,153766.59
2023-06-30T19:49:57.001Z,153765.28
2023-06-30T19:52:25.094Z,153750.94
2023-06-30T19:54:53.081Z,153740.53
2023-06-30T19:57:21.153Z,153734.03
2023-06-30T19:59:49.099Z,150982.50
2023-06-30T20:02:24.599Z,150449.81
2023-06-30T20:04:56.401Z,151769.31
2023-06-30T20:07:24.571Z,153266.66
2023-06-30T20:09:52.520Z,153710.53
2023-06-30T20:12:20.520Z,153702.72
2023-06-30T20:14:48.648Z,153666.22
2023-06-30T20:17:17.541Z,153579.34
2023-06-30T20:19:45.987Z,149622.63
2023-06-30T20:22:15.559Z,151820.81
2023-06-30T20:24:43.519Z,153582.28
2023-06-30T20:27:11.538Z,153647.97
2023-06-30T20:29:39.791Z,153641.44
2023-06-30T20:32:08.866Z,153632.28
2023-06-30T20:34:36.829Z,153618.00
2023-06-30T20:37:04.988Z,153620.59
2023-06-30T20:39:34.372Z,153624.53
2023-06-30T20:42:02.393Z,153616.69
2023-06-30T20:44:30.281Z,153598.44
2023-06-30T20:46:58.928Z,153593.22
2023-06-30T20:49:27.117Z,153586.69
2023-06-30T20:51:56.125Z,153582.78
2023-06-30T20:54:25.623Z,153588.00
2023-06-30T20:56:56.179Z,153585.38
2023-06-30T20:59:24.030Z,153565.88
2023-06-30T21:01:51.937Z,153569.78
2023-06-30T21:04:20.004Z,153558.03
2023-06-30T21:06:47.974Z,153546.31
2023-06-30T21:09:15.987Z,153554.13
2023-06-30T21:11:43.762Z,153526.69
2023-06-30T21:14:13.014Z,153531.91
2023-06-30T21:16:42.492Z,153538.44
2023-06-30T21:19:11.577Z,153520.16
2023-06-30T21:21:45.027Z,153517.63
2023-06-30T21:24:14.961Z,153504.56
2023-06-30T21:26:44.964Z,153492.84
2023-06-30T21:29:14.706Z,153483.72
2023-06-30T21:31:42.711Z,153478.50
2023-06-30T21:34:10.723Z,153498.06
2023-06-30T21:36:39.840Z,153492.84
2023-06-30T21:39:07.974Z,153478.50
2023-06-30T21:41:39.496Z,153483.72
2023-06-30T21:44:16.664Z,153478.50
2023-06-30T21:46:46.553Z,153474.56
2023-06-30T21:49:14.637Z,153469.38
2023-06-30T21:51:43.615Z,153456.38
2023-06-30T21:54:11.713Z,153447.25
2023-06-30T21:56:40.194Z,153438.13
2023-06-30T21:59:07.998Z,153453.75
2023-06-30T22:01:41.841Z,153447.25
2023-06-30T22:04:11.964Z,153443.34
2023-06-30T22:06:40.202Z,153443.34
2023-06-30T22:09:16.067Z,153449.84
2023-06-30T22:11:45.229Z,153465.44
2023-06-30T22:14:13.726Z,153465.44
2023-06-30T22:16:42.070Z,153455.06
2023-06-30T22:19:12.191Z,153452.47
2023-06-30T22:21:40.120Z,153457.69
2023-06-30T22:24:09.115Z,153442.03
2023-06-30T22:26:38.110Z,153451.16
2023-06-30T22:29:06.110Z,153445.94
2023-06-30T22:31:34.183Z,153434.22
2023-06-30T22:34:03.071Z,153439.41
2023-06-30T22:36:32.499Z,153426.38
2023-06-30T22:39:00.536Z,153434.22
2023-06-30T22:41:28.400Z,153425.09
2023-06-30T22:43:56.516Z,153426.38
2023-06-30T22:46:24.636Z,153418.56
2023-06-30T22:48:52.640Z,153419.88
2023-06-30T22:51:23.782Z,153429.00
2023-06-30T22:53:52.957Z,153432.91
2023-06-30T22:56:20.949Z,153430.31
2023-06-30T22:58:51.407Z,153442.03
2023-06-30T23:01:19.383Z,153444.63
2023-06-30T23:03:47.617Z,153440.72
2023-06-30T23:06:15.662Z,153434.22
2023-06-30T23:08:43.511Z,153434.22
2023-06-30T23:11:12.789Z,153434.22
2023-06-30T23:13:40.645Z,153426.38
2023-06-30T23:16:10.286Z,153436.81
2023-06-30T23:18:39.235Z,153436.81
2023-06-30T23:21:10.468Z,153432.91
2023-06-30T23:23:41.528Z,153432.91
2023-06-30T23:26:11.228Z,153434.22
2023-06-30T23:28:44.408Z,153434.22
2023-06-30T23:31:13.058Z,153427.69
2023-06-30T23:33:44.112Z,153427.69
2023-06-30T23:36:12.093Z,153430.31
2023-06-30T23:38:40.395Z,153414.66
2023-06-30T23:41:08.479Z,153413.34
2023-06-30T23:43:36.344Z,153429.00
2023-06-30T23:46:05.984Z,153415.94
2023-06-30T23:48:33.943Z,153421.16
2023-06-30T23:51:01.797Z,153443.34
2023-06-30T23:53:29.692Z,153435.50
2023-06-30T23:55:57.621Z,153434.22
2023-06-30T23:58:25.713Z,153431.59
